Aviation Digital Data Service (ADDS)

Output produced by METARs form (1828 UTC 01 September 2014)
found at http://aviationweather.gov/adds/metars/
 
KCDW 011753Z VRB05KT 10SM FEW038 SCT060 BKN085 29/20 A2997 RMK AO2 SLP151 T02940200 10306 20233 58012
KMMU 011745Z 20003KT 10SM BKN030 BKN060 29/21 A2997
KFWN 011753Z AUTO 00000KT 10SM OVC080 29/21 A2998 RMK AO1 SLP148 T02890211 10294 20228 56011
KTEB 011751Z 19008KT 10SM SCT055 OVC085 31/21 A2994 RMK AO2 SLP138 T03060211 10306 20244 58014
KTEB 011732Z 0118/0218 19009KT P6SM FEW030 BKN050 
     TEMPO 0118/0121 SHRA 
     FM020100 VRB04KT P6SM SCT025 SCT050 BKN150 
     FM020500 VRB03KT 4SM BR SCT020 SCT050 BKN150 
     FM021400 23005KT P6SM FEW020 SCT050
       
KEWR 011751Z 17006KT 10SM SCT035 BKN085 BKN130 BKN250 32/21 A2995 RMK AO2 SLP142 T03170206 10317 20244 58014 $
KEWR 011732Z 0118/0224 20008KT P6SM FEW030 BKN050 
     TEMPO 0118/0121 SHRA 
     FM020100 21005KT P6SM SCT025 SCT050 BKN150 
     FM020500 24004KT 6SM BR SCT020 SCT050 BKN150 
     TEMPO 0208/0211 4SM BR 
     FM021400 23007KT P6SM FEW020 SCT050 
     FM021600 21010KT P6SM SCT050 
     FM021900 20014KT P6SM SCT050
       
KABE 011751Z 22007KT 10SM BKN040 BKN070 30/20 A2998 RMK AO2 SLP147 T03000200 10306 20228 58013
KABE 011738Z 0118/0218 23007KT P6SM VCSH BKN050 
     TEMPO 0120/0124 5SM -SHRA 
     FM020000 22005KT P6SM SCT040 BKN100 
     FM020800 VRB02KT 5SM BR SCT100 
     TEMPO 0210/0213 3SM BR 
     FM021400 25007KT P6SM SCT100
       
KAVP 011754Z AUTO 24009KT 210V270 10SM FEW028 SCT038 OVC065 28/19 A3000 RMK AO2 SLP148 T02780194 10283 20211 58010 TSNO
KAVP 011731Z 0118/0218 22008KT P6SM SCT025 BKN045 
     FM020300 21004KT 5SM BR SCT045 BKN150 
     TEMPO 0208/0212 2SM BR 
     FM021300 25010KT P6SM BKN050
       
KSWF 011745Z 25008KT 15SM SCT020 BKN060 28/22 A2999
KSWF 011732Z 0118/0224 23009KT P6SM SCT020 BKN050 
     TEMPO 0118/0121 SHRA BKN020 
     FM020100 VRB03KT 6SM BR SCT020 SCT050 BKN150 
     FM020500 VRB03KT 4SM BR SCT020 SCT050 BKN150 
     TEMPO 0208/0211 2SM BR 
     FM021400 24007KT P6SM FEW020 SCT050 
     FM021600 23009KT P6SM SCT050 AMD NOT SKED
       
KMSV 011815Z AUTO 21003KT 10SM SCT025 BKN039 OVC065 26/21 A3003 RMK AO1
KPOU 011753Z 23009KT 10SM FEW037 BKN075 29/20 A2995 RMK AO2 SLP138 T02940200 10300 20228 58012 $
KPOU 011736Z 0118/0218 23008KT P6SM SCT040 BKN060 
     FM012000 22007KT P6SM SCT060 
     FM020100 00000KT P6SM SKC 
     FM020600 00000KT 4SM BR SKC 
     FM020800 00000KT 1SM BR SCT003 SCT250 
     FM021300 22006KT P6SM BKN250